Time;durP1;ratioP1;P1;durP2;ratioP2;P2;SDS_P1;SDS_P2;PMS_P1;PMS_P2;Temp;Humidity;BMP_temperature;BMP_pressure;BME280_temperature;BME280_humidity;BME280_pressure;Samples;Min_cycle;Max_cycle;Signal;HPM_P1;HPM_P2
2023/05/11 00:00:25;;;;;;;0.50;0.50;;;;;;;10.59;92.85;96701.84;29395;261;63015;-56
2023/05/11 00:01:08;;;;;;;0.50;0.50;;;;;;;10.59;92.99;96702.66;29394;235;64013;-57
2023/05/11 00:01:40;;;;;;;0.50;0.50;;;;;;;10.58;92.78;96701.06;29395;240;63005;-56
2023/05/11 00:02:14;;;;;;;0.50;0.50;;;;;;;10.58;92.79;96706.47;29395;196;63009;-56
2023/05/11 00:02:47;;;;;;;0.50;0.50;;;;;;;10.57;92.51;96698.63;29395;239;63005;-56
2023/05/11 00:03:18;;;;;;;0.50;0.50;;;;;;;10.57;92.86;96699.44;29395;260;63009;-56
2023/05/11 00:03:50;;;;;;;0.50;0.50;;;;;;;10.55;93.17;96696.22;29395;215;63004;-56
2023/05/11 00:04:21;;;;;;;0.50;0.50;;;;;;;10.55;92.97;96698.94;29395;232;63009;-57
2023/05/11 00:04:54;;;;;;;0.50;0.50;;;;;;;10.55;93.02;96704.34;29395;251;63004;-56
2023/05/11 00:05:26;;;;;;;0.45;0.45;;;;;;;10.54;92.95;96699.22;29395;202;63009;-56
2023/05/11 00:05:57;;;;;;;0.50;0.50;;;;;;;10.54;93.32;96696.50;29394;206;64008;-57
2023/05/11 00:06:29;;;;;;;0.50;0.50;;;;;;;10.53;93.27;96695.72;29395;214;63009;-57
2023/05/11 00:07:00;;;;;;;0.50;0.50;;;;;;;10.55;93.51;96698.13;29395;245;63005;-56
2023/05/11 00:07:32;;;;;;;0.50;0.50;;;;;;;10.55;93.26;96692.69;29395;207;63014;-56
2023/05/11 00:08:03;;;;;;;0.50;0.50;;;;;;;10.53;93.43;96701.13;29395;216;63005;-56
2023/05/11 00:08:34;;;;;;;0.50;0.50;;;;;;;10.54;93.13;96697.31;29395;240;63009;-56
2023/05/11 00:09:06;;;;;;;0.50;0.50;;;;;;;10.54;93.34;96694.59;29395;253;63000;-56
2023/05/11 00:09:40;;;;;;;0.50;0.50;;;;;;;10.54;93.42;96700.03;29395;205;63009;-56
2023/05/11 00:10:12;;;;;;;0.50;0.50;;;;;;;10.53;93.80;96694.91;29395;239;63005;-56
2023/05/11 00:10:47;;;;;;;0.50;0.50;;;;;;;10.52;93.45;96693.28;29395;219;63014;-57
2023/05/11 00:11:18;;;;;;;0.40;0.40;;;;;;;10.50;93.64;96692.78;29394;211;64009;-56
2023/05/11 00:11:51;;;;;;;0.50;0.50;;;;;;;10.50;93.84;96696.31;29395;220;63016;-56
2023/05/11 00:12:23;;;;;;;0.50;0.50;;;;;;;10.50;94.37;96693.59;29395;343;63016;-56
2023/05/11 00:12:55;;;;;;;0.50;0.50;;;;;;;10.51;94.15;96697.09;29395;211;63009;-56
2023/05/11 00:13:27;;;;;;;0.50;0.50;;;;;;;10.50;94.42;96693.59;29395;237;63004;-56
2023/05/11 00:13:58;;;;;;;0.50;0.50;;;;;;;10.50;94.31;96690.88;29395;231;63023;-56
2023/05/11 00:14:29;;;;;;;0.50;0.50;;;;;;;10.50;94.63;96701.72;29395;221;63005;-57
2023/05/11 00:15:01;;;;;;;0.50;0.50;;;;;;;10.48;95.48;96687.66;29394;232;64009;-57
2023/05/11 00:15:32;;;;;;;0.45;0.45;;;;;;;10.47;96.54;96694.19;29395;205;63005;-56
2023/05/11 00:16:06;;;;;;;0.50;0.50;;;;;;;10.46;96.26;96689.03;29395;228;63014;-56
2023/05/11 00:16:37;;;;;;;0.50;0.50;;;;;;;10.44;96.09;96686.63;29394;203;64009;-56
2023/05/11 00:17:10;;;;;;;0.50;0.50;;;;;;;10.44;95.96;96692.06;29395;203;63027;-56
2023/05/11 00:17:42;;;;;;;0.50;0.50;;;;;;;10.44;96.33;96691.25;29395;197;63005;-56
2023/05/11 00:18:13;;;;;;;0.50;0.50;;;;;;;10.44;96.22;96692.06;29395;244;63009;-56
2023/05/11 00:18:44;;;;;;;0.50;0.50;;;;;;;10.43;96.37;96690.44;29395;244;63004;-56
2023/05/11 00:19:15;;;;;;;0.50;0.50;;;;;;;10.42;96.20;96694.25;29395;222;63009;-56
2023/05/11 00:19:47;;;;;;;0.50;0.50;;;;;;;10.42;96.13;96688.81;29395;237;63004;-56
2023/05/11 00:20:20;;;;;;;0.50;0.50;;;;;;;10.43;96.40;96690.44;29395;252;63009;-56
2023/05/11 00:20:51;;;;;;;0.50;0.50;;;;;;;10.44;96.41;96697.47;29395;275;63015;-56
2023/05/11 00:21:23;;;;;;;0.50;0.50;;;;;;;10.45;95.96;96687.44;29394;244;64013;-57
2023/05/11 00:21:54;;;;;;;0.50;0.50;;;;;;;10.44;95.62;96686.63;29395;250;63005;-57
2023/05/11 00:22:25;;;;;;;0.50;0.50;;;;;;;10.44;95.94;96686.63;29395;296;63009;-55
2023/05/11 00:22:57;;;;;;;0.50;0.50;;;;;;;10.44;95.51;96689.34;29395;198;63005;-56
2023/05/11 00:23:28;;;;;;;0.50;0.50;;;;;;;10.45;95.54;96687.44;29395;222;63009;-57
2023/05/11 00:23:59;;;;;;;0.50;0.50;;;;;;;10.44;95.44;96686.63;29395;208;63005;-57
2023/05/11 00:24:34;;;;;;;0.50;0.50;;;;;;;10.42;95.40;96688.81;29395;244;63009;-56
2023/05/11 00:25:06;;;;;;;0.50;0.50;;;;;;;10.42;94.99;96691.53;29395;370;63005;-56
2023/05/11 00:25:38;;;;;;;0.40;0.40;;;;;;;10.41;95.40;96687.22;29395;206;63009;-56
2023/05/11 00:26:10;;;;;;;0.40;0.40;;;;;;;10.40;95.17;96681.00;29395;202;63004;-56
2023/05/11 00:26:42;;;;;;;0.50;0.50;;;;;;;10.41;95.07;96692.66;29394;260;64013;-56
2023/05/11 00:27:13;;;;;;;0.50;0.50;;;;;;;10.42;95.29;96688.81;29395;206;63004;-57
2023/05/11 00:27:44;;;;;;;0.47;0.47;;;;;;;10.43;95.34;96690.44;29395;199;63009;-56
2023/05/11 00:28:16;;;;;;;0.50;0.50;;;;;;;10.42;95.21;96683.41;29395;204;63004;-56
2023/05/11 00:28:47;;;;;;;0.50;0.50;;;;;;;10.43;94.77;96685.03;29395;211;63008;-56
2023/05/11 00:29:18;;;;;;;0.50;0.50;;;;;;;10.42;94.37;96683.41;29395;217;63009;-56
2023/05/11 00:29:49;;;;;;;0.50;0.50;;;;;;;10.40;94.08;96686.41;29395;197;63009;-57
2023/05/11 00:30:23;;;;;;;0.50;0.50;;;;;;;10.41;94.09;96687.22;29395;210;63005;-55
2023/05/11 00:30:56;;;;;;;0.40;0.40;;;;;;;10.40;94.10;96682.91;29395;225;63009;-58
2023/05/11 00:31:27;;;;;;;0.50;0.50;;;;;;;10.42;94.41;96680.69;29395;243;63005;-58
2023/05/11 00:31:58;;;;;;;0.50;0.50;;;;;;;10.41;94.16;96687.22;29394;229;64013;-56
2023/05/11 00:32:30;;;;;;;0.50;0.50;;;;;;;10.40;93.98;96685.59;29394;219;64005;-56
2023/05/11 00:33:02;;;;;;;0.50;0.50;;;;;;;10.41;93.86;96679.09;29395;213;63020;-56
2023/05/11 00:33:37;;;;;;;0.50;0.50;;;;;;;10.42;93.95;96683.41;29395;206;63004;-58
2023/05/11 00:34:08;;;;;;;0.50;0.50;;;;;;;10.43;93.91;96678.78;29395;222;63020;-56
2023/05/11 00:34:43;;;;;;;0.43;0.43;;;;;;;10.42;93.48;96683.41;29395;240;63004;-57
2023/05/11 00:35:14;;;;;;;0.43;0.43;;;;;;;10.41;93.67;96681.78;29395;208;63009;-56
2023/05/11 00:35:47;;;;;;;0.50;0.50;;;;;;;10.41;93.70;96681.78;29395;233;63004;-57
2023/05/11 00:36:19;;;;;;;0.50;0.50;;;;;;;10.41;93.86;96682.59;29395;219;63018;-57
2023/05/11 00:36:50;;;;;;;0.50;0.50;;;;;;;10.40;93.68;96681.00;29394;228;64009;-57
2023/05/11 00:37:21;;;;;;;0.50;0.50;;;;;;;10.41;93.72;96681.78;29395;222;63009;-56
2023/05/11 00:37:54;;;;;;;0.50;0.50;;;;;;;10.41;94.10;96687.22;29395;243;63005;-57
2023/05/11 00:38:26;;;;;;;0.50;0.50;;;;;;;10.42;94.11;96683.41;29395;210;63009;-56
2023/05/11 00:38:58;;;;;;;0.47;0.47;;;;;;;10.42;94.01;96677.97;29395;223;63005;-56
2023/05/11 00:39:30;;;;;;;0.50;0.50;;;;;;;10.44;94.16;96681.22;29395;202;63009;-56
2023/05/11 00:40:02;;;;;;;0.50;0.50;;;;;;;10.43;93.75;96682.31;29395;207;63005;-57
2023/05/11 00:40:34;;;;;;;0.70;0.70;;;;;;;10.44;93.70;96675.78;29395;270;63009;-56
2023/05/11 00:41:05;;;;;;;0.40;0.40;;;;;;;10.43;93.65;96673.38;29395;218;63004;-57
2023/05/11 00:41:37;;;;;;;0.50;0.50;;;;;;;10.41;94.18;96681.78;29395;205;63024;-56
2023/05/11 00:42:10;;;;;;;0.40;0.40;;;;;;;10.41;94.10;96681.78;29394;245;64004;-57
2023/05/11 00:42:41;;;;;;;0.50;0.50;;;;;;;10.41;94.25;96679.09;29395;197;63009;-55
2023/05/11 00:43:12;;;;;;;0.50;0.50;;;;;;;10.40;94.54;96685.59;29395;196;63004;-56
2023/05/11 00:43:43;;;;;;;0.50;0.50;;;;;;;10.40;94.67;96675.56;29395;222;63008;-55
2023/05/11 00:44:15;;;;;;;0.40;0.40;;;;;;;10.40;94.84;96685.59;29395;196;63015;-56
2023/05/11 00:44:46;;;;;;;0.40;0.40;;;;;;;10.38;94.87;96682.41;29395;197;63009;-56
2023/05/11 00:45:19;;;;;;;0.50;0.50;;;;;;;10.37;94.86;96681.59;29395;202;63005;-57
2023/05/11 00:45:52;;;;;;;0.40;0.40;;;;;;;10.38;94.70;96682.41;29394;220;64012;-55
2023/05/11 00:46:23;;;;;;;0.40;0.40;;;;;;;10.38;94.86;96685.13;29395;303;63005;-56
2023/05/11 00:46:56;;;;;;;0.40;0.40;;;;;;;10.39;94.57;96684.03;29395;216;63009;-55
2023/05/11 00:47:27;;;;;;;0.50;0.50;;;;;;;10.40;94.80;96685.59;29394;206;64009;-57
2023/05/11 00:47:59;;;;;;;0.50;0.50;;;;;;;10.39;94.72;96684.03;29395;237;63009;-56
2023/05/11 00:48:31;;;;;;;0.50;0.50;;;;;;;10.39;94.33;96681.31;29395;234;63004;-57
2023/05/11 00:49:02;;;;;;;0.50;0.50;;;;;;;10.40;94.28;96688.31;29395;238;63009;-55
2023/05/11 00:49:34;;;;;;;0.50;0.50;;;;;;;10.39;94.65;96684.03;29395;237;63004;-56
2023/05/11 00:50:07;;;;;;;0.40;0.40;;;;;;;10.39;94.72;96678.59;29395;228;63014;-56
2023/05/11 00:50:41;;;;;;;0.47;0.47;;;;;;;10.38;94.80;96679.69;29395;197;63004;-57
2023/05/11 00:51:13;;;;;;;0.50;0.50;;;;;;;10.38;94.74;96682.41;29395;226;63008;-58
2023/05/11 00:51:44;;;;;;;0.50;0.50;;;;;;;10.38;94.86;96677.00;29395;199;63005;-56
2023/05/11 00:52:17;;;;;;;0.50;0.50;;;;;;;10.38;94.82;96682.41;29395;220;63009;-56
2023/05/11 00:52:49;;;;;;;0.43;0.43;;;;;;;10.38;94.75;96682.41;29394;233;64009;-56
2023/05/11 00:53:24;;;;;;;0.40;0.40;;;;;;;10.38;94.17;96682.41;29395;226;63009;-56
2023/05/11 00:53:57;;;;;;;0.43;0.43;;;;;;;10.37;94.27;96678.09;29395;225;63005;-56
2023/05/11 00:54:29;;;;;;;0.50;0.50;;;;;;;10.37;94.25;96680.81;29395;212;63009;-56
2023/05/11 00:55:00;;;;;;;0.50;0.50;;;;;;;10.38;94.61;96677.00;29395;202;63005;-56
2023/05/11 00:55:31;;;;;;;0.40;0.40;;;;;;;10.39;94.61;96678.59;29395;239;63009;-57
2023/05/11 00:56:04;;;;;;;0.50;0.50;;;;;;;10.40;94.69;96686.41;29395;258;63004;-56
2023/05/11 00:56:35;;;;;;;0.50;0.50;;;;;;;10.43;94.84;96682.31;29395;217;63009;-56
2023/05/11 00:57:07;;;;;;;0.50;0.50;;;;;;;10.44;94.77;96681.22;29395;368;63004;-56
2023/05/11 00:57:38;;;;;;;0.50;0.50;;;;;;;10.44;94.65;96686.63;29394;214;64013;-57
2023/05/11 00:58:10;;;;;;;0.50;0.50;;;;;;;10.44;94.12;96685.81;29395;214;63004;-57
2023/05/11 00:58:41;;;;;;;0.50;0.50;;;;;;;10.44;94.42;96691.25;29395;198;63011;-56
2023/05/11 00:59:13;;;;;;;0.40;0.40;;;;;;;10.44;94.49;96686.63;29395;204;63004;-56
2023/05/11 00:59:44;;;;;;;0.50;0.50;;;;;;;10.44;94.04;96683.91;29395;199;63009;-56
2023/05/11 01:00:16;;;;;;;0.50;0.50;;;;;;;10.45;94.18;96682.00;29395;204;63005;-56
2023/05/11 01:00:47;;;;;;;0.40;0.40;;;;;;;10.45;93.91;96687.44;29395;202;63009;-56
2023/05/11 01:01:19;;;;;;;0.43;0.43;;;;;;;10.46;94.44;96684.44;29395;238;63005;-56
2023/05/11 01:01:50;;;;;;;0.50;0.50;;;;;;;10.47;94.09;96679.81;29395;204;63016;-57
2023/05/11 01:02:22;;;;;;;0.40;0.40;;;;;;;10.46;93.53;96678.19;29395;253;63017;-57
2023/05/11 01:02:53;;;;;;;0.50;0.50;;;;;;;10.43;93.48;96679.59;29394;198;64013;-57
2023/05/11 01:03:25;;;;;;;0.40;0.40;;;;;;;10.45;93.38;96687.44;29395;227;63010;-57
2023/05/11 01:03:57;;;;;;;0.50;0.50;;;;;;;10.48;93.83;96681.41;29395;222;63009;-58
2023/05/11 01:04:29;;;;;;;0.40;0.40;;;;;;;10.48;93.65;96676.81;29395;209;63004;-58
2023/05/11 01:05:00;;;;;;;0.40;0.40;;;;;;;10.47;92.98;96675.19;29395;215;63009;-57
2023/05/11 01:05:52;;;;;;;0.50;0.50;;;;;;;10.46;93.07;96681.72;29395;204;63004;-58
2023/05/11 01:07:08;;;;;;;0.50;0.50;;;;;;;10.45;92.81;96682.00;29395;220;63009;-56
2023/05/11 01:08:29;;;;;;;0.40;0.40;;;;;;;10.42;92.69;96683.41;29394;197;64009;-57
2023/05/11 01:09:14;;;;;;;0.50;0.50;;;;;;;10.45;94.07;96677.37;29395;240;63009;-58
2023/05/11 01:10:10;;;;;;;0.50;0.50;;;;;;;10.46;93.52;96689.84;29395;247;63005;-56
2023/05/11 01:10:48;;;;;;;0.40;0.40;;;;;;;10.44;93.28;96675.78;29395;222;63009;-56
2023/05/11 01:11:29;;;;;;;0.50;0.50;;;;;;;10.43;92.88;96678.78;29395;212;63004;-57
2023/05/11 01:12:10;;;;;;;;;;;;;;;10.40;92.77;96681.00;29996;983;6004;-57
2023/05/11 01:12:58;;;;;;;0.50;0.50;;;;;;;10.41;93.22;96676.38;29399;232;64013;-58
2023/05/11 01:13:51;;;;;;;0.50;0.50;;;;;;;10.43;93.76;96681.50;29395;210;63004;-58
2023/05/11 01:14:30;;;;;;;0.50;0.50;;;;;;;10.46;92.68;96683.63;29395;267;63005;-56
2023/05/11 01:15:13;;;;;;;0.50;0.50;;;;;;;10.44;91.71;96678.50;29395;214;63006;-57
2023/05/11 01:15:54;;;;;;;0.50;0.50;;;;;;;10.43;91.83;96679.59;29395;245;63005;-56
2023/05/11 01:16:32;;;;;;;0.50;0.50;;;;;;;10.43;91.98;96685.03;29417;233;63009;-56
2023/05/11 01:17:11;;;;;;;0.50;0.50;;;;;;;10.42;92.19;96683.41;29395;244;63005;-56
2023/05/11 01:18:20;;;;;;;0.50;0.50;;;;;;;10.41;92.31;96681.78;29394;250;64013;-56
2023/05/11 01:19:25;;;;;;;0.50;0.50;;;;;;;10.41;92.14;96681.78;29394;250;64009;-56
2023/05/11 01:20:02;;;;;;;0.50;0.50;;;;;;;10.41;92.01;96681.78;29394;198;64013;-56
2023/05/11 01:20:34;;;;;;;0.50;0.50;;;;;;;10.43;91.73;96684.22;29395;245;63004;-57
2023/05/11 01:21:07;;;;;;;0.50;0.50;;;;;;;10.41;91.44;96681.78;29395;243;63008;-57
2023/05/11 01:21:40;;;;;;;0.50;0.50;;;;;;;10.41;91.60;96684.50;29395;203;63005;-57
2023/05/11 01:22:52;;;;;;;0.50;0.50;;;;;;;10.41;91.42;96681.78;29395;242;63009;-56
2023/05/11 01:24:16;;;;;;;0.50;0.50;;;;;;;10.41;91.21;96679.09;29394;225;64009;-56
2023/05/11 01:25:17;;;;;;;0.50;0.50;;;;;;;10.36;92.30;96680.00;29394;262;64009;-58
2023/05/11 01:26:33;;;;;;;0.50;0.50;;;;;;;10.35;92.92;96677.59;29417;222;63025;-56
2023/05/11 01:27:33;;;;;;;0.50;0.50;;;;;;;10.34;92.56;96675.97;29395;206;63000;-56
2023/05/11 01:28:49;;;;;;;0.50;0.50;;;;;;;10.32;92.27;96683.59;29395;215;63008;-56
2023/05/11 01:30:04;;;;;;;0.50;0.50;;;;;;;10.29;92.46;96678.75;29394;203;64009;-56
2023/05/11 01:30:53;;;;;;;0.50;0.50;;;;;;;10.28;92.63;96686.09;29395;357;63009;-57
2023/05/11 01:31:30;;;;;;;0.50;0.50;;;;;;;10.29;92.79;96678.75;29394;238;64005;-56
2023/05/11 01:32:09;;;;;;;0.50;0.50;;;;;;;10.27;92.14;96675.53;29395;206;63009;-57
2023/05/11 01:32:43;;;;;;;0.50;0.50;;;;;;;10.27;92.39;96680.97;29395;225;63005;-58
2023/05/11 01:33:17;;;;;;;0.50;0.50;;;;;;;10.27;92.45;96678.25;29395;239;63009;-57
2023/05/11 01:33:57;;;;;;;0.50;0.50;;;;;;;10.27;92.38;96680.97;29395;268;63004;-56
2023/05/11 01:34:33;;;;;;;0.50;0.50;;;;;;;10.27;92.47;96676.34;29416;236;64013;-57
2023/05/11 01:35:16;;;;;;;0.50;0.50;;;;;;;10.27;92.37;96680.97;29395;232;63004;-58
2023/05/11 01:35:55;;;;;;;0.50;0.50;;;;;;;10.27;92.35;96673.62;29395;196;63004;-57
2023/05/11 01:36:33;;;;;;;0.50;0.50;;;;;;;10.27;92.23;96676.34;29395;204;63005;-58
2023/05/11 01:37:12;;;;;;;0.50;0.50;;;;;;;10.27;91.99;96678.25;29394;220;64014;-57
2023/05/11 01:37:50;;;;;;;0.50;0.50;;;;;;;10.27;91.92;96675.53;29394;235;64009;-58
2023/05/11 01:38:27;;;;;;;0.50;0.50;;;;;;;10.29;91.96;96678.75;29395;197;63009;-56
2023/05/11 01:39:04;;;;;;;0.50;0.50;;;;;;;10.27;92.27;96672.81;29394;216;64009;-57
2023/05/11 01:39:49;;;;;;;0.50;0.50;;;;;;;10.27;91.53;96675.53;29395;258;63009;-55
2023/05/11 01:40:25;;;;;;;0.50;0.50;;;;;;;10.29;91.89;96678.75;29395;214;63005;-57
2023/05/11 01:40:59;;;;;;;0.50;0.50;;;;;;;10.25;91.87;96672.31;29395;214;63009;-57
2023/05/11 01:41:33;;;;;;;0.50;0.50;;;;;;;10.28;91.85;96674.44;29395;239;63004;-57
2023/05/11 01:42:09;;;;;;;0.50;0.50;;;;;;;10.30;91.78;96680.38;29395;196;63009;-56
2023/05/11 01:43:03;;;;;;;0.50;0.50;;;;;;;10.29;91.82;96679.56;29395;219;63009;-57
2023/05/11 01:43:36;;;;;;;0.50;0.50;;;;;;;10.29;92.34;96673.34;29395;244;63008;-58
2023/05/11 01:44:10;;;;;;;0.50;0.50;;;;;;;10.29;93.05;96684.19;29394;279;64009;-57
2023/05/11 01:44:45;;;;;;;0.50;0.50;;;;;;;10.27;93.86;96679.06;29395;252;63009;-56
2023/05/11 01:45:18;;;;;;;0.50;0.50;;;;;;;10.28;93.66;96679.84;29395;251;63005;-57
2023/05/11 01:45:51;;;;;;;0.50;0.50;;;;;;;10.28;94.29;96683.38;29395;224;63009;-57
2023/05/11 01:46:25;;;;;;;0.50;0.50;;;;;;;10.25;94.63;96678.53;29395;219;63005;-56
2023/05/11 01:47:01;;;;;;;0.50;0.50;;;;;;;10.25;95.24;96683.16;29395;216;63009;-57
2023/05/11 01:47:34;;;;;;;0.50;0.50;;;;;;;10.24;95.74;96678.84;29395;240;63005;-56
2023/05/11 01:48:10;;;;;;;0.50;0.50;;;;;;;10.23;96.23;96674.50;29394;222;64013;-58
2023/05/11 01:48:48;;;;;;;0.50;0.50;;;;;;;10.21;96.04;96671.28;29395;250;63004;-57
2023/05/11 01:49:20;;;;;;;0.50;0.50;;;;;;;10.21;96.00;96679.41;29395;233;63009;-57
2023/05/11 01:49:54;;;;;;;0.50;0.50;;;;;;;10.20;96.23;96677.81;29395;197;63004;-57
2023/05/11 01:50:26;;;;;;;0.50;0.50;;;;;;;10.19;95.85;96678.87;29395;241;63009;-57
2023/05/11 01:51:01;;;;;;;0.50;0.50;;;;;;;10.18;95.95;96677.28;29395;241;63008;-57
2023/05/11 01:51:36;;;;;;;0.50;0.50;;;;;;;10.17;95.75;96675.66;29395;219;63009;-57
2023/05/11 01:52:08;;;;;;;0.50;0.50;;;;;;;10.15;95.61;96670.53;29395;215;63005;-57
2023/05/11 01:52:42;;;;;;;0.50;0.50;;;;;;;10.15;95.66;96675.94;29395;214;63009;-57
2023/05/11 01:53:15;;;;;;;0.50;0.50;;;;;;;10.15;95.70;96672.44;29394;235;64009;-57
2023/05/11 01:53:48;;;;;;;0.50;0.50;;;;;;;10.14;95.75;96671.63;29395;202;63009;-56
2023/05/11 01:54:20;;;;;;;0.50;0.50;;;;;;;10.14;95.49;96670.81;29395;244;63005;-58
2023/05/11 01:54:55;;;;;;;0.50;0.50;;;;;;;10.14;95.63;96674.34;29395;222;63009;-57
2023/05/11 01:55:30;;;;;;;0.50;0.50;;;;;;;10.13;95.56;96671.94;29395;239;63005;-55
2023/05/11 01:56:06;;;;;;;0.40;0.40;;;;;;;10.13;95.40;96674.62;29395;207;63009;-57
2023/05/11 01:56:43;;;;;;;0.50;0.50;;;;;;;10.11;95.56;96676.84;29395;231;63014;-56
2023/05/11 01:57:16;;;;;;;0.50;0.50;;;;;;;10.10;95.80;96670.59;29395;249;63009;-56
2023/05/11 01:57:51;;;;;;;0.50;0.50;;;;;;;10.09;95.80;96675.22;29395;229;63004;-55
2023/05/11 01:58:24;;;;;;;0.50;0.50;;;;;;;10.09;95.93;96675.22;29394;226;64013;-55
2023/05/11 01:58:57;;;;;;;0.50;0.50;;;;;;;10.08;96.56;96668.19;29395;210;63005;-56
2023/05/11 01:59:30;;;;;;;0.50;0.50;;;;;;;10.09;96.58;96677.94;29395;216;63009;-55
2023/05/11 02:00:03;;;;;;;0.50;0.50;;;;;;;10.09;96.22;96675.22;29395;252;63005;-56
2023/05/11 02:00:35;;;;;;;0.50;0.50;;;;;;;10.09;96.76;96677.94;29395;220;63009;-55
2023/05/11 02:01:11;;;;;;;0.50;0.50;;;;;;;10.11;96.87;96682.25;29394;231;64009;-58
2023/05/11 02:01:42;;;;;;;0.50;0.50;;;;;;;10.11;96.53;96676.84;29395;238;63009;-55
2023/05/11 02:02:15;;;;;;;0.50;0.50;;;;;;;10.09;96.10;96680.63;29395;219;63004;-56
2023/05/11 02:02:48;;;;;;;0.50;0.50;;;;;;;10.07;95.91;96677.41;29395;260;63009;-56
2023/05/11 02:03:21;;;;;;;0.50;0.50;;;;;;;10.07;95.52;96676.63;29395;197;63004;-55
2023/05/11 02:03:54;;;;;;;0.50;0.50;;;;;;;10.08;95.04;96670.09;29395;233;63009;-55
2023/05/11 02:04:28;;;;;;;0.40;0.40;;;;;;;10.08;95.22;96672.81;29395;227;63004;-55
2023/05/11 02:05:01;;;;;;;0.50;0.50;;;;;;;10.09;95.53;96669.81;29395;199;63008;-56
2023/05/11 02:05:33;;;;;;;0.50;0.50;;;;;;;10.08;95.47;96676.31;29395;251;63004;-58
2023/05/11 02:06:07;;;;;;;0.40;0.40;;;;;;;10.08;95.38;96668.19;29395;260;63008;-57
2023/05/11 02:06:40;;;;;;;0.50;0.50;;;;;;;10.08;95.61;96667.38;29394;224;64009;-56
2023/05/11 02:07:13;;;;;;;0.50;0.50;;;;;;;10.09;95.57;96672.50;29395;202;63009;-56
2023/05/11 02:07:47;;;;;;;0.40;0.40;;;;;;;10.09;95.53;96675.22;29395;373;63005;-55
2023/05/11 02:08:21;;;;;;;0.50;0.50;;;;;;;10.10;95.40;96681.44;29395;249;63009;-56
2023/05/11 02:08:53;;;;;;;0.50;0.50;;;;;;;10.11;95.14;96677.63;29395;216;63005;-56
2023/05/11 02:09:25;;;;;;;0.40;0.40;;;;;;;10.09;95.36;96675.22;29395;213;63009;-56
2023/05/11 02:09:59;;;;;;;0.50;0.50;;;;;;;10.08;95.20;96670.91;29395;232;63004;-55
2023/05/11 02:10:32;;;;;;;0.40;0.40;;;;;;;10.09;95.49;96677.13;29394;219;64009;-56
2023/05/11 02:11:04;;;;;;;0.50;0.50;;;;;;;10.11;95.24;96674.12;29395;226;63004;-56
2023/05/11 02:11:38;;;;;;;0.50;0.50;;;;;;;10.11;95.12;96674.94;29394;266;64013;-56
2023/05/11 02:12:13;;;;;;;0.50;0.50;;;;;;;10.11;94.76;96679.53;29395;261;63017;-56
2023/05/11 02:12:46;;;;;;;0.50;0.50;;;;;;;10.11;95.01;96672.22;29395;255;63008;-57
2023/05/11 02:13:19;;;;;;;0.50;0.50;;;;;;;10.13;94.78;96674.62;29395;227;63005;-56
2023/05/11 02:13:55;;;;;;;0.50;0.50;;;;;;;10.12;93.62;96673.03;29395;210;63026;-57
2023/05/11 02:14:32;;;;;;;0.50;0.50;;;;;;;10.11;93.13;96688.47;29395;247;63005;-56
2023/05/11 02:15:09;;;;;;;0.50;0.50;;;;;;;10.12;93.59;96681.16;29395;214;63009;-55
2023/05/11 02:15:42;;;;;;;0.50;0.50;;;;;;;10.13;93.57;96680.06;29395;247;63005;-56
2023/05/11 02:16:15;;;;;;;0.50;0.50;;;;;;;10.15;93.86;96688.69;29395;236;63009;-56
2023/05/11 02:16:49;;;;;;;0.43;0.43;;;;;;;10.16;94.08;96685.69;29394;229;64009;-57
2023/05/11 02:17:23;;;;;;;0.50;0.50;;;;;;;10.18;94.25;96682.69;29395;196;63009;-56
2023/05/11 02:17:55;;;;;;;0.50;0.50;;;;;;;10.19;93.84;96678.87;29395;324;63004;-56
2023/05/11 02:18:29;;;;;;;0.50;0.50;;;;;;;10.19;93.54;96679.72;29395;463;63025;-55
2023/05/11 02:19:00;;;;;;;0.50;0.50;;;;;;;10.20;93.13;96680.53;29395;199;63011;-56
2023/05/11 02:19:37;;;;;;;0.50;0.50;;;;;;;10.20;93.25;96681.34;29395;264;63009;-55
2023/05/11 02:20:11;;;;;;;0.40;0.40;;;;;;;10.21;93.49;96682.12;29395;222;63004;-55
2023/05/11 02:20:44;;;;;;;0.40;0.40;;;;;;;10.22;93.76;96686.47;29395;243;63009;-56
2023/05/11 02:21:16;;;;;;;0.47;0.47;;;;;;;10.22;93.76;96686.47;29395;248;63005;-56
2023/05/11 02:21:50;;;;;;;0.50;0.50;;;;;;;10.21;93.61;96685.66;29394;204;64014;-55
2023/05/11 02:22:23;;;;;;;0.40;0.40;;;;;;;10.21;93.48;96682.94;29394;222;64009;-56
2023/05/11 02:22:55;;;;;;;0.50;0.50;;;;;;;10.22;93.72;96684.56;29395;208;63009;-56
2023/05/11 02:23:30;;;;;;;0.40;0.40;;;;;;;10.23;93.74;96677.22;29395;205;63014;-55
2023/05/11 02:24:04;;;;;;;0.50;0.50;;;;;;;10.22;93.51;96683.75;29395;210;63009;-57
2023/05/11 02:24:36;;;;;;;0.50;0.50;;;;;;;10.22;93.75;96679.13;29395;198;63005;-56
2023/05/11 02:25:10;;;;;;;0.50;0.50;;;;;;;10.23;93.65;96679.94;29395;228;63009;-56
2023/05/11 02:25:42;;;;;;;0.50;0.50;;;;;;;10.21;93.51;96679.41;29395;242;63004;-55
2023/05/11 02:26:15;;;;;;;0.50;0.50;;;;;;;10.21;93.83;96676.72;29395;227;63009;-56
2023/05/11 02:26:47;;;;;;;0.50;0.50;;;;;;;10.19;93.35;96682.44;29395;247;63004;-56
2023/05/11 02:27:18;;;;;;;0.50;0.50;;;;;;;10.20;93.42;96680.53;29394;237;64013;-56
2023/05/11 02:27:50;;;;;;;0.50;0.50;;;;;;;10.20;93.51;96675.09;29395;231;63004;-56
2023/05/11 02:28:22;;;;;;;0.50;0.50;;;;;;;10.19;93.26;96685.13;29395;234;63009;-56
2023/05/11 02:28:54;;;;;;;0.50;0.50;;;;;;;10.18;93.25;96679.97;29395;220;63005;-56
2023/05/11 02:29:26;;;;;;;0.45;0.45;;;;;;;10.16;93.88;96679.47;29395;215;63009;-56
2023/05/11 02:29:58;;;;;;;0.50;0.50;;;;;;;10.17;93.77;96675.66;29395;197;63005;-56
2023/05/11 02:30:32;;;;;;;0.50;0.50;;;;;;;10.17;94.29;96678.37;29395;319;63026;-55
2023/05/11 02:31:09;;;;;;;0.50;0.50;;;;;;;10.17;94.21;96679.19;29394;456;64009;-56
2023/05/11 02:31:45;;;;;;;0.50;0.50;;;;;;;10.18;94.12;96678.06;29395;253;63009;-57
2023/05/11 02:32:19;;;;;;;0.50;0.50;;;;;;;10.20;93.94;96675.09;29395;196;63005;-57
2023/05/11 02:32:54;;;;;;;0.50;0.50;;;;;;;10.19;92.24;96678.87;29395;209;63009;-55
2023/05/11 02:33:32;;;;;;;0.50;0.50;;;;;;;10.19;92.71;96679.72;29395;218;63004;-57
2023/05/11 02:34:19;;;;;;;0.50;0.50;;;;;;;10.21;92.97;96676.72;29395;417;63009;-56
2023/05/11 02:35:00;;;;;;;0.50;0.50;;;;;;;10.22;93.06;96678.31;29395;236;63004;-55
2023/05/11 02:35:38;;;;;;;0.50;0.50;;;;;;;10.23;93.24;96677.22;29417;230;63024;-56
2023/05/11 02:36:16;;;;;;;0.50;0.50;;;;;;;10.22;92.92;96679.13;29394;202;64009;-56
2023/05/11 02:36:49;;;;;;;0.50;0.50;;;;;;;10.23;93.28;96679.94;29395;202;63009;-56
2023/05/11 02:37:24;;;;;;;0.50;0.50;;;;;;;10.24;93.16;96670.69;29395;263;63012;-56
2023/05/11 02:37:59;;;;;;;0.40;0.40;;;;;;;10.26;93.39;96680.16;29395;202;63009;-56
2023/05/11 02:38:35;;;;;;;0.50;0.50;;;;;;;10.29;93.22;96682.28;29394;204;64005;-55
2023/05/11 02:39:09;;;;;;;0.47;0.47;;;;;;;10.26;91.01;96682.06;29395;197;63009;-55
2023/05/11 02:39:45;;;;;;;0.50;0.50;;;;;;;10.24;90.93;96676.13;29395;199;63014;-56
2023/05/11 02:40:19;;;;;;;0.50;0.50;;;;;;;10.26;91.53;96673.94;29395;238;63009;-56
2023/05/11 02:40:57;;;;;;;0.40;0.40;;;;;;;10.25;91.89;96683.16;29395;233;63004;-56
2023/05/11 02:41:30;;;;;;;0.50;0.50;;;;;;;10.26;91.85;96680.16;29394;223;64013;-56
2023/05/11 02:42:14;;;;;;;0.50;0.50;;;;;;;10.27;91.65;96681.75;29395;229;63004;-57
2023/05/11 02:42:52;;;;;;;0.50;0.50;;;;;;;10.27;92.01;96679.06;29395;240;63008;-56
2023/05/11 02:43:28;;;;;;;0.50;0.50;;;;;;;10.27;92.08;96680.97;29395;335;63005;-56
2023/05/11 02:44:03;;;;;;;0.50;0.50;;;;;;;10.27;92.48;96678.25;29395;211;63009;-55
2023/05/11 02:44:37;;;;;;;0.50;0.50;;;;;;;10.25;92.70;96683.16;29395;207;63005;-56
2023/05/11 02:45:11;;;;;;;0.50;0.50;;;;;;;10.24;92.53;96671.50;29395;231;63009;-56
2023/05/11 02:45:44;;;;;;;0.50;0.50;;;;;;;10.26;92.47;96679.34;29395;239;63005;-55
2023/05/11 02:46:23;;;;;;;0.50;0.50;;;;;;;10.25;92.31;96677.75;29395;236;63009;-56
2023/05/11 02:46:59;;;;;;;0.50;0.50;;;;;;;10.26;92.59;96682.06;29394;239;64009;-56
2023/05/11 02:47:35;;;;;;;0.40;0.40;;;;;;;10.26;91.91;96676.63;29394;227;64013;-55
2023/05/11 02:48:10;;;;;;;0.50;0.50;;;;;;;10.25;91.96;96677.75;29395;196;63004;-55
2023/05/11 02:48:49;;;;;;;0.50;0.50;;;;;;;10.23;92.17;96675.31;29395;198;63009;-56
2023/05/11 02:49:24;;;;;;;0.50;0.50;;;;;;;10.24;92.18;96678.84;29395;196;63017;-57